Rankin Inlet, Canada
Current Conditions -  °F | °C
As of 10:00 AM on Sunday 25 Jan 2015 (Local Time) from CYRT Reporting Station
Ice Pellets Ice Pellets  
Wind Chill: -54°   Ceiling: Unl
Heat Index: -33°   Visibility: 15mi
Dew Point: -40°   Wind: 8mph
Humidity: 68%   Direction: 350°N
Pressure: 29.98"   Gusts: NA
Location:  62.81°N, 92.08°W
Report Text: CYRT 251600Z 35007KT 15SM IC SKC M36/M40 A2998 RMK SLP159
Loading
Personal Weather Stations






























Interactive Weather Map New forecast layout! Learn more

10-Day Weather Forecast

Advertisements
Track Severe Weather on mobile